createdAt,value
2019-06-07T00:00:36.778Z,6.40
2019-06-07T00:02:46.255Z,6.40
2019-06-07T00:05:17.995Z,6.30
2019-06-07T00:07:42.224Z,6.30
2019-06-07T00:10:15.371Z,6.20
2019-06-07T00:12:38.737Z,6.20
2019-06-07T00:15:10.559Z,6.20
2019-06-07T00:17:34.959Z,6.10
2019-06-07T00:20:03.850Z,6.00
2019-06-07T00:22:33.375Z,5.90
2019-06-07T00:24:59.936Z,5.80
2019-06-07T00:27:26.956Z,5.90
2019-06-07T00:29:53.990Z,5.90
2019-06-07T00:32:23.466Z,5.90
2019-06-07T00:34:50.512Z,5.90
2019-06-07T00:37:20.613Z,5.80
2019-06-07T00:39:59.453Z,5.80
2019-06-07T00:42:17.505Z,5.80
2019-06-07T00:44:43.911Z,5.80
2019-06-07T00:47:11.056Z,5.80
2019-06-07T00:49:41.368Z,5.80
2019-06-07T00:52:08.187Z,5.90
2019-06-07T00:54:35.290Z,5.90
2019-06-07T00:57:02.320Z,5.90
2019-06-07T00:59:29.898Z,6.00
2019-06-07T01:01:57.006Z,6.00
2019-06-07T01:04:26.307Z,6.00
2019-06-07T01:06:52.871Z,5.80
2019-06-07T01:09:22.404Z,5.90
2019-06-07T01:11:48.769Z,5.80
2019-06-07T01:14:19.388Z,5.60
2019-06-07T01:16:57.117Z,5.50
2019-06-07T01:19:13.854Z,5.60
2019-06-07T01:21:40.918Z,5.50
2019-06-07T01:24:12.356Z,5.50
2019-06-07T01:26:36.911Z,5.60
2019-06-07T01:29:04.026Z,5.60
2019-06-07T01:31:31.699Z,5.60
2019-06-07T01:33:59.234Z,5.70
2019-06-07T01:36:29.574Z,5.80
2019-06-07T01:38:55.340Z,5.80
2019-06-07T01:41:25.265Z,5.80
2019-06-07T01:43:51.252Z,5.70
2019-06-07T01:46:18.264Z,5.60
2019-06-07T01:48:49.682Z,5.50
2019-06-07T01:51:15.233Z,5.40
2019-06-07T01:53:42.216Z,5.40
2019-06-07T01:56:09.402Z,5.30
2019-06-07T01:58:36.408Z,5.30
2019-06-07T02:01:03.392Z,5.30
2019-06-07T02:03:33.120Z,5.30
2019-06-07T02:06:00.277Z,5.30
2019-06-07T02:08:33.547Z,5.30
2019-06-07T02:10:56.077Z,5.30
2019-06-07T02:13:23.718Z,5.20
2019-06-07T02:15:51.437Z,5.10
2019-06-07T02:18:21.794Z,5.10
2019-06-07T02:20:47.527Z,5.00
2019-06-07T02:23:14.660Z,5.00
2019-06-07T02:25:48.723Z,4.90
2019-06-07T02:28:27.228Z,4.90
2019-06-07T02:30:47.383Z,4.80
2019-06-07T02:33:08.621Z,4.80
2019-06-07T02:35:40.665Z,4.80
2019-06-07T02:38:04.519Z,4.80
2019-06-07T02:40:36.493Z,4.70
2019-06-07T02:43:00.416Z,4.70
2019-06-07T02:45:34.225Z,4.70
2019-06-07T02:47:56.312Z,4.70
2019-06-07T02:50:26.323Z,4.60
2019-06-07T02:52:53.184Z,4.60
2019-06-07T02:55:20.195Z,4.60
2019-06-07T02:57:49.270Z,4.70
2019-06-07T03:01:00.091Z,4.80
2019-06-07T03:03:05.662Z,4.90
2019-06-07T03:05:36.272Z,4.90
2019-06-07T03:08:02.429Z,5.00
2019-06-07T03:10:31.711Z,4.90
2019-06-07T03:13:00.371Z,4.90
2019-06-07T03:15:35.418Z,5.00
2019-06-07T03:18:02.807Z,5.00
2019-06-07T03:20:33.195Z,4.90
2019-06-07T03:23:00.265Z,4.90
2019-06-07T03:25:33.535Z,4.80
2019-06-07T03:27:59.864Z,4.80
2019-06-07T03:30:58.074Z,4.80
2019-06-07T03:32:55.972Z,4.80
2019-06-07T03:35:23.119Z,4.70
2019-06-07T03:37:50.255Z,4.70
2019-06-07T03:40:17.402Z,4.70
2019-06-07T03:42:44.451Z,4.70
2019-06-07T03:45:11.477Z,4.70
2019-06-07T03:47:42.084Z,4.70
2019-06-07T03:50:07.336Z,4.70
2019-06-07T03:52:37.129Z,4.70
2019-06-07T03:55:05.063Z,4.70
2019-06-07T03:58:23.793Z,4.70
2019-06-07T04:00:01.104Z,4.70
2019-06-07T04:02:30.227Z,4.80
2019-06-07T04:04:57.037Z,4.70
2019-06-07T04:07:24.344Z,4.80
2019-06-07T04:09:51.295Z,4.80
2019-06-07T04:12:18.353Z,4.80
2019-06-07T04:14:45.355Z,4.90
2019-06-07T04:17:12.409Z,4.90
2019-06-07T04:19:43.129Z,4.90
2019-06-07T04:22:08.394Z,5.00
2019-06-07T04:24:38.875Z,5.10
2019-06-07T04:27:04.199Z,5.20
2019-06-07T04:29:33.922Z,5.60
2019-06-07T04:32:00.107Z,6.00
2019-06-07T04:34:29.158Z,6.00
2019-06-07T04:36:59.503Z,6.00
2019-06-07T04:39:26.472Z,6.00
2019-06-07T04:41:54.282Z,5.90
2019-06-07T04:44:23.375Z,6.00
2019-06-07T04:46:50.606Z,6.10
2019-06-07T04:49:20.155Z,6.20
2019-06-07T04:51:48.071Z,6.50
2019-06-07T04:54:15.061Z,6.80
2019-06-07T04:56:44.707Z,7.20
2019-06-07T04:59:11.010Z,7.70
2019-06-07T05:01:41.419Z,8.20
2019-06-07T05:04:06.865Z,8.70
2019-06-07T05:06:36.291Z,9.50
2019-06-07T05:09:04.737Z,9.90
2019-06-07T05:11:33.367Z,10.10
2019-06-07T05:14:00.667Z,10.40
2019-06-07T05:16:27.696Z,10.80
2019-06-07T05:18:54.736Z,11.10
2019-06-07T05:21:21.792Z,11.10
2019-06-07T05:24:06.410Z,11.00
2019-06-07T05:26:17.684Z,11.60
2019-06-07T05:28:45.420Z,11.90
2019-06-07T05:31:12.622Z,11.90
2019-06-07T05:33:41.240Z,12.20
2019-06-07T05:36:09.571Z,12.80
2019-06-07T05:38:40.522Z,13.60
2019-06-07T05:41:05.371Z,14.40
2019-06-07T05:43:35.129Z,14.10
2019-06-07T05:46:01.183Z,13.90
2019-06-07T05:48:28.256Z,13.80
2019-06-07T05:50:57.472Z,14.00
2019-06-07T05:53:24.026Z,13.70
2019-06-07T05:55:51.022Z,13.80
2019-06-07T05:58:18.124Z,14.00
2019-06-07T06:00:47.624Z,14.30
2019-06-07T06:03:13.931Z,13.70
2019-06-07T06:05:45.772Z,13.10
2019-06-07T06:08:09.927Z,12.60
2019-06-07T06:10:39.595Z,12.30
2019-06-07T06:13:06.003Z,12.00
2019-06-07T06:15:48.645Z,11.90
2019-06-07T06:18:02.142Z,11.80
2019-06-07T06:20:34.864Z,12.20
2019-06-07T06:22:58.274Z,12.40
2019-06-07T06:25:34.064Z,12.80
2019-06-07T06:28:10.209Z,13.20
2019-06-07T06:30:24.700Z,13.30
2019-06-07T06:32:57.768Z,13.40
2019-06-07T06:35:20.660Z,13.70
2019-06-07T06:37:52.952Z,13.90
2019-06-07T06:40:17.489Z,13.80
2019-06-07T06:42:48.352Z,13.90
2019-06-07T06:45:15.282Z,14.00
2019-06-07T06:47:43.330Z,13.70
2019-06-07T06:50:11.716Z,13.20
2019-06-07T06:52:42.277Z,12.80
2019-06-07T06:55:08.670Z,12.40
2019-06-07T06:57:35.754Z,12.10
2019-06-07T07:00:06.099Z,12.00
2019-06-07T07:02:34.980Z,11.90
2019-06-07T07:05:02.685Z,11.80
2019-06-07T07:07:30.289Z,11.90
2019-06-07T07:09:59.558Z,12.40
2019-06-07T07:12:26.777Z,12.50
2019-06-07T07:14:55.887Z,12.70
2019-06-07T07:17:46.962Z,12.60
2019-06-07T07:19:53.063Z,12.60
2019-06-07T07:22:20.517Z,12.70
2019-06-07T07:24:49.739Z,13.00
2019-06-07T07:27:17.436Z,13.20
2019-06-07T07:29:47.838Z,13.20
2019-06-07T07:32:13.416Z,13.10
2019-06-07T07:34:40.497Z,13.30
2019-06-07T07:37:07.494Z,13.50
2019-06-07T07:39:34.606Z,14.00
2019-06-07T07:42:20.201Z,14.30
2019-06-07T07:44:30.487Z,14.50
2019-06-07T07:46:57.452Z,14.60
2019-06-07T07:49:24.554Z,14.80
2019-06-07T07:51:55.083Z,15.20
2019-06-07T07:54:20.477Z,15.10
2019-06-07T07:56:48.951Z,15.60
2019-06-07T07:59:16.377Z,15.90
2019-06-07T08:01:43.379Z,15.90
2019-06-07T08:04:10.507Z,16.10
2019-06-07T08:06:37.486Z,16.20
2019-06-07T08:09:07.245Z,16.30
2019-06-07T08:11:34.323Z,16.50
2019-06-07T08:14:02.294Z,16.50
2019-06-07T08:16:29.389Z,16.40
2019-06-07T08:19:02.293Z,16.60
2019-06-07T08:21:27.127Z,16.70
2019-06-07T08:23:58.335Z,16.70
2019-06-07T08:26:23.161Z,16.50
2019-06-07T08:28:53.215Z,16.40
2019-06-07T08:31:19.044Z,16.30
2019-06-07T08:33:46.084Z,16.20
2019-06-07T08:36:21.851Z,16.40
2019-06-07T08:38:47.859Z,16.60
2019-06-07T08:41:12.258Z,16.50
2019-06-07T08:43:39.731Z,16.70
2019-06-07T08:46:07.882Z,16.70
2019-06-07T08:48:35.236Z,16.80
2019-06-07T08:51:08.155Z,16.80
2019-06-07T08:53:32.291Z,17.00
2019-06-07T08:56:08.829Z,17.20
2019-06-07T08:58:28.156Z,17.40
2019-06-07T09:00:56.268Z,17.50
2019-06-07T09:03:24.147Z,17.10
2019-06-07T09:05:53.472Z,17.20
2019-06-07T09:08:29.764Z,17.40
2019-06-07T09:10:48.898Z,17.40
2019-06-07T09:13:16.795Z,17.50
2019-06-07T09:15:43.900Z,17.20
2019-06-07T09:18:37.853Z,17.20
2019-06-07T09:20:45.706Z,17.70
2019-06-07T09:23:17.140Z,17.80
2019-06-07T09:25:56.411Z,17.70
2019-06-07T09:28:18.756Z,17.90
2019-06-07T09:30:41.645Z,18.20
2019-06-07T09:33:09.780Z,18.30
2019-06-07T09:35:37.717Z,18.20
2019-06-07T09:38:18.146Z,18.10
2019-06-07T09:40:33.793Z,18.10
2019-06-07T09:43:54.261Z,18.10
2019-06-07T09:45:33.012Z,18.20
2019-06-07T09:48:04.450Z,17.80
2019-06-07T09:50:29.104Z,17.30
2019-06-07T09:53:02.687Z,17.30
2019-06-07T09:55:25.469Z,17.10
2019-06-07T09:57:52.648Z,16.60
2019-06-07T10:00:39.761Z,16.30
2019-06-07T10:02:48.997Z,15.80
2019-06-07T10:05:16.063Z,15.60
2019-06-07T10:08:00.058Z,15.40
2019-06-07T10:12:40.896Z,15.40
2019-06-07T10:15:09.037Z,15.40
2019-06-07T10:17:36.208Z,15.30
2019-06-07T10:20:05.812Z,15.40
2019-06-07T10:22:32.943Z,15.40
2019-06-07T10:24:59.945Z,15.40
2019-06-07T10:27:27.008Z,15.40
2019-06-07T10:29:56.410Z,15.20
2019-06-07T10:32:23.515Z,15.30
2019-06-07T10:34:50.610Z,14.90
2019-06-07T10:37:17.719Z,15.00
2019-06-07T10:39:48.533Z,15.10
2019-06-07T10:42:13.651Z,15.10
2019-06-07T10:44:41.787Z,15.20
2019-06-07T10:47:10.003Z,15.10
2019-06-07T10:49:39.605Z,15.10
2019-06-07T10:52:08.518Z,15.10
2019-06-07T10:54:35.709Z,15.20
2019-06-07T10:57:03.001Z,15.10
2019-06-07T10:59:29.971Z,15.10
2019-06-07T11:01:58.163Z,15.20
2019-06-07T11:04:25.133Z,15.20
2019-06-07T11:06:52.172Z,15.10
2019-06-07T11:09:19.255Z,15.20
2019-06-07T11:11:47.186Z,14.90
2019-06-07T11:14:14.787Z,14.80
2019-06-07T11:16:41.958Z,15.00
2019-06-07T11:19:13.603Z,15.20
2019-06-07T11:21:37.865Z,15.30
2019-06-07T11:24:06.036Z,15.40
2019-06-07T11:26:33.182Z,15.20
2019-06-07T11:29:00.264Z,15.40
2019-06-07T11:31:27.400Z,15.40
2019-06-07T11:33:54.473Z,15.40
2019-06-07T11:36:21.572Z,15.10
2019-06-07T11:38:48.819Z,15.00
2019-06-07T11:41:16.019Z,14.70
2019-06-07T11:43:43.180Z,14.80
2019-06-07T11:46:11.238Z,14.80
2019-06-07T11:48:38.347Z,14.70
2019-06-07T11:51:06.690Z,14.50
2019-06-07T11:53:34.014Z,14.60
2019-06-07T11:56:01.144Z,14.70
2019-06-07T11:58:28.425Z,14.60
2019-06-07T12:00:55.521Z,14.50
2019-06-07T12:03:22.603Z,14.40
2019-06-07T12:05:49.715Z,14.30
2019-06-07T12:08:19.049Z,14.20
2019-06-07T12:10:46.150Z,14.20
2019-06-07T12:13:15.353Z,14.20
2019-06-07T12:15:42.016Z,14.20
2019-06-07T12:18:09.246Z,14.00
2019-06-07T12:20:36.409Z,14.00
2019-06-07T12:23:03.395Z,14.20
2019-06-07T12:25:30.520Z,14.40
2019-06-07T12:27:57.500Z,14.30
2019-06-07T12:30:27.884Z,14.30
2019-06-07T12:32:55.673Z,14.70
2019-06-07T12:35:22.765Z,14.70
2019-06-07T12:37:49.721Z,14.80
2019-06-07T12:40:27.702Z,14.80
2019-06-07T12:42:45.769Z,14.80
2019-06-07T12:45:30.782Z,15.00
2019-06-07T12:47:41.988Z,14.70
2019-06-07T12:50:09.860Z,14.50
2019-06-07T12:52:39.163Z,14.70
2019-06-07T12:55:07.468Z,14.50
2019-06-07T12:57:34.473Z,14.40
2019-06-07T13:00:01.509Z,14.50
2019-06-07T13:02:28.524Z,14.80
2019-06-07T13:04:55.589Z,14.70
2019-06-07T13:07:24.169Z,14.80
2019-06-07T13:09:51.526Z,14.80
2019-06-07T13:12:19.776Z,14.90
2019-06-07T13:14:46.941Z,15.00
2019-06-07T13:17:14.015Z,15.00
2019-06-07T13:19:41.052Z,15.10
2019-06-07T13:22:08.057Z,15.20
2019-06-07T13:24:35.095Z,15.20
2019-06-07T13:27:02.075Z,15.00
2019-06-07T13:29:31.753Z,14.90
2019-06-07T13:31:57.889Z,14.90
2019-06-07T13:34:25.005Z,14.60
2019-06-07T13:36:53.081Z,14.50
2019-06-07T13:39:23.247Z,14.40
2019-06-07T13:41:49.006Z,14.20
2019-06-07T13:44:16.720Z,14.10
2019-06-07T13:46:43.841Z,14.20
2019-06-07T13:49:10.958Z,14.30
2019-06-07T13:51:37.915Z,14.50
2019-06-07T13:54:05.080Z,14.50
2019-06-07T13:56:32.057Z,14.50
2019-06-07T13:58:59.118Z,14.40
2019-06-07T14:01:29.025Z,14.50
2019-06-07T14:03:56.354Z,14.60
2019-06-07T14:06:23.537Z,14.50
2019-06-07T14:08:50.769Z,14.60
2019-06-07T14:11:19.076Z,14.60
2019-06-07T14:13:46.515Z,14.70
2019-06-07T14:16:15.908Z,14.80
2019-06-07T14:18:43.006Z,14.60
2019-06-07T14:21:10.041Z,14.50
2019-06-07T14:23:48.198Z,14.50
2019-06-07T14:26:06.093Z,14.40
2019-06-07T14:28:34.306Z,14.50
2019-06-07T14:31:02.351Z,14.30
2019-06-07T14:33:30.652Z,14.30
2019-06-07T14:35:59.341Z,14.40
2019-06-07T14:38:27.313Z,14.50
2019-06-07T14:40:55.501Z,14.40
2019-06-07T14:43:23.138Z,14.50
2019-06-07T14:45:50.361Z,14.70
2019-06-07T14:48:17.495Z,14.80
2019-06-07T14:50:44.568Z,14.80
2019-06-07T14:53:11.692Z,14.80
2019-06-07T14:55:38.801Z,14.80
2019-06-07T14:58:05.976Z,14.80
2019-06-07T15:00:38.992Z,14.80
2019-06-07T15:03:06.064Z,14.70
2019-06-07T15:05:33.102Z,14.70
2019-06-07T15:08:00.164Z,14.70
2019-06-07T15:10:28.600Z,14.80
2019-06-07T15:12:55.767Z,14.90
2019-06-07T15:15:22.834Z,14.70
2019-06-07T15:17:49.948Z,15.10
2019-06-07T15:20:16.990Z,14.80
2019-06-07T15:22:44.179Z,14.80
2019-06-07T15:25:11.253Z,14.80
2019-06-07T15:27:39.115Z,14.90
2019-06-07T15:30:10.582Z,14.70
2019-06-07T15:32:38.727Z,14.80
2019-06-07T15:35:06.852Z,14.70
2019-06-07T15:37:34.587Z,14.70
2019-06-07T15:40:01.754Z,14.90
2019-06-07T15:42:42.752Z,14.80
2019-06-07T15:44:58.675Z,14.90
2019-06-07T15:47:25.769Z,14.90
2019-06-07T15:49:52.892Z,14.70
2019-06-07T15:52:20.072Z,14.80
2019-06-07T15:54:47.136Z,14.90
2019-06-07T15:57:14.257Z,14.70
2019-06-07T15:59:41.574Z,14.80
2019-06-07T16:02:08.781Z,14.70
2019-06-07T16:04:35.924Z,14.60
2019-06-07T16:07:03.318Z,14.30
2019-06-07T16:09:30.461Z,14.00
2019-06-07T16:11:57.569Z,13.90
2019-06-07T16:14:24.683Z,14.10
2019-06-07T16:16:51.822Z,14.10
2019-06-07T16:19:18.963Z,14.00
2019-06-07T16:21:46.972Z,13.90
2019-06-07T16:24:14.046Z,13.70
2019-06-07T16:26:42.443Z,13.70
2019-06-07T16:29:09.740Z,13.50
2019-06-07T16:31:36.834Z,13.30
2019-06-07T16:34:04.106Z,13.30
2019-06-07T16:36:31.189Z,13.20
2019-06-07T16:38:58.340Z,13.10
2019-06-07T16:41:25.494Z,13.20
2019-06-07T16:43:52.630Z,13.30
2019-06-07T16:46:21.734Z,13.30
2019-06-07T16:48:49.111Z,13.40
2019-06-07T16:51:16.378Z,13.40
2019-06-07T16:53:45.965Z,13.20
2019-06-07T16:56:13.074Z,13.20
2019-06-07T16:58:40.356Z,13.10
2019-06-07T17:01:07.395Z,13.20
2019-06-07T17:03:34.530Z,13.10
2019-06-07T17:06:03.091Z,13.20
2019-06-07T17:08:30.163Z,13.10
2019-06-07T17:10:58.342Z,13.00
2019-06-07T17:13:33.769Z,13.00
2019-06-07T17:15:59.610Z,12.80
2019-06-07T17:18:27.500Z,12.60
2019-06-07T17:20:54.497Z,12.50
2019-06-07T17:23:21.660Z,12.40
2019-06-07T17:25:49.786Z,12.30
2019-06-07T17:28:16.968Z,12.10
2019-06-07T17:30:44.048Z,12.20
2019-06-07T17:33:12.355Z,12.10
2019-06-07T17:35:40.132Z,12.10
2019-06-07T17:38:07.236Z,12.10
2019-06-07T17:40:34.277Z,12.10
2019-06-07T17:43:02.034Z,12.20
2019-06-07T17:45:29.086Z,12.20
2019-06-07T17:47:56.144Z,12.20
2019-06-07T17:50:23.945Z,12.10
2019-06-07T17:52:52.100Z,12.10
2019-06-07T17:55:19.274Z,12.20
2019-06-07T17:57:46.591Z,12.20
2019-06-07T18:00:28.198Z,12.10
2019-06-07T18:02:44.783Z,12.10
2019-06-07T18:05:11.963Z,12.00
2019-06-07T18:07:39.050Z,12.00
2019-06-07T18:10:08.953Z,12.00
2019-06-07T18:12:36.031Z,12.00
2019-06-07T18:15:06.520Z,12.00
2019-06-07T18:17:34.759Z,12.00
2019-06-07T18:20:05.627Z,11.90
2019-06-07T18:22:32.737Z,11.90
2019-06-07T18:24:59.790Z,12.00
2019-06-07T18:27:26.778Z,11.90
2019-06-07T18:29:54.760Z,11.90
2019-06-07T18:32:21.847Z,11.90
2019-06-07T18:34:48.885Z,12.00
2019-06-07T18:37:15.900Z,12.00
2019-06-07T18:39:42.914Z,12.00
2019-06-07T18:42:10.040Z,11.90
2019-06-07T18:44:37.097Z,11.80
2019-06-07T18:47:04.081Z,11.90
2019-06-07T18:49:31.129Z,11.80
2019-06-07T18:52:17.857Z,11.80
2019-06-07T18:54:44.929Z,11.80
2019-06-07T18:57:12.542Z,11.70
2019-06-07T18:59:39.782Z,11.70
2019-06-07T19:02:06.779Z,11.00
2019-06-07T19:04:33.945Z,11.60
2019-06-07T19:07:00.911Z,11.50
2019-06-07T19:09:28.183Z,11.50
2019-06-07T19:11:55.307Z,11.50
2019-06-07T19:14:36.295Z,11.40
2019-06-07T19:16:53.705Z,11.40
2019-06-07T19:19:22.975Z,11.40
2019-06-07T19:21:50.009Z,11.70
2019-06-07T19:24:18.134Z,11.30
2019-06-07T19:26:47.422Z,11.20
2019-06-07T19:29:16.382Z,11.20
2019-06-07T19:31:43.667Z,11.10
2019-06-07T19:34:11.146Z,11.00
2019-06-07T19:36:48.662Z,10.70
2019-06-07T19:39:10.411Z,10.90
2019-06-07T19:41:38.068Z,10.90
2019-06-07T19:44:05.869Z,10.90
2019-06-07T19:46:33.430Z,10.90
2019-06-07T19:49:00.949Z,10.90
2019-06-07T19:51:28.163Z,10.90
2019-06-07T19:53:55.352Z,10.80
2019-06-07T19:56:22.530Z,10.80
2019-06-07T19:58:49.595Z,10.70
2019-06-07T20:01:16.739Z,10.70
2019-06-07T20:03:43.693Z,10.60
2019-06-07T20:06:10.728Z,10.60
2019-06-07T20:08:37.740Z,10.60
2019-06-07T20:11:04.946Z,10.60
2019-06-07T20:13:31.905Z,10.60
2019-06-07T20:15:59.119Z,10.50
2019-06-07T20:18:27.972Z,10.60
2019-06-07T20:20:56.342Z,9.00
2019-06-07T20:23:23.631Z,10.50
2019-06-07T20:25:50.700Z,10.50
2019-06-07T20:28:17.729Z,10.40
2019-06-07T20:30:45.011Z,10.40
2019-06-07T20:33:12.073Z,10.40
2019-06-07T20:35:39.939Z,10.40
2019-06-07T20:38:06.956Z,10.40
2019-06-07T20:40:34.019Z,10.40
2019-06-07T20:43:01.499Z,10.40
2019-06-07T20:45:33.703Z,10.40
2019-06-07T20:47:58.137Z,10.30
2019-06-07T20:50:25.425Z,10.30
2019-06-07T20:52:52.469Z,10.20
2019-06-07T20:55:19.612Z,10.20
2019-06-07T20:57:46.678Z,10.20
2019-06-07T21:00:21.395Z,10.20
2019-06-07T21:02:43.796Z,10.20
2019-06-07T21:05:11.204Z,10.20
2019-06-07T21:07:38.293Z,10.10
2019-06-07T21:10:08.264Z,10.00
2019-06-07T21:12:35.613Z,10.10
2019-06-07T21:15:09.704Z,10.00
2019-06-07T21:17:33.651Z,10.00
2019-06-07T21:20:00.658Z,10.10
2019-06-07T21:22:28.684Z,10.20
2019-06-07T21:24:55.991Z,10.20
2019-06-07T21:27:23.058Z,10.20
2019-06-07T21:29:50.306Z,10.10
2019-06-07T21:32:17.335Z,10.10
2019-06-07T21:34:44.315Z,10.10
2019-06-07T21:37:13.646Z,10.00
2019-06-07T21:39:40.651Z,10.00
2019-06-07T21:42:08.153Z,10.00
2019-06-07T21:44:39.061Z,9.90
2019-06-07T21:47:08.924Z,9.90
2019-06-07T21:49:35.909Z,9.90
2019-06-07T21:52:04.385Z,9.80
2019-06-07T21:54:31.661Z,9.70
2019-06-07T21:56:58.858Z,9.80
2019-06-07T21:59:25.988Z,9.80
2019-06-07T22:01:53.020Z,9.80
2019-06-07T22:04:21.107Z,9.80
2019-06-07T22:06:48.208Z,9.80
2019-06-07T22:09:15.770Z,9.80
2019-06-07T22:11:42.911Z,9.70
2019-06-07T22:14:12.461Z,9.70
2019-06-07T22:16:39.700Z,9.70
2019-06-07T22:19:06.779Z,9.70
2019-06-07T22:21:34.921Z,9.70
2019-06-07T22:24:02.162Z,9.60
2019-06-07T22:26:29.344Z,9.50
2019-06-07T22:28:56.504Z,9.40
2019-06-07T22:31:23.551Z,9.40
2019-06-07T22:33:50.591Z,9.40
2019-06-07T22:36:17.622Z,9.30
2019-06-07T22:38:44.678Z,9.30
2019-06-07T22:41:12.332Z,9.30
2019-06-07T22:43:41.628Z,9.30
2019-06-07T22:46:08.788Z,9.30
2019-06-07T22:48:35.909Z,9.20
2019-06-07T22:51:08.547Z,9.20
2019-06-07T22:53:36.142Z,9.20
2019-06-07T22:56:04.978Z,9.20
2019-06-07T22:58:32.088Z,9.20
2019-06-07T23:00:59.217Z,9.20
2019-06-07T23:03:26.249Z,9.20
2019-06-07T23:05:53.322Z,9.20
2019-06-07T23:08:20.357Z,9.30
2019-06-07T23:10:48.566Z,9.30
2019-06-07T23:13:15.603Z,9.30
2019-06-07T23:15:42.673Z,9.30
2019-06-07T23:18:09.624Z,9.30
2019-06-07T23:20:36.652Z,9.30
2019-06-07T23:23:03.605Z,9.30
2019-06-07T23:25:30.675Z,9.30
2019-06-07T23:27:57.699Z,9.30
2019-06-07T23:30:25.937Z,9.30
2019-06-07T23:32:52.957Z,9.30
2019-06-07T23:35:21.159Z,9.30
2019-06-07T23:37:48.330Z,9.30
2019-06-07T23:40:17.233Z,9.30
2019-06-07T23:42:44.397Z,9.30
2019-06-07T23:45:12.015Z,9.30
2019-06-07T23:47:40.415Z,9.30
2019-06-07T23:50:07.377Z,9.30
2019-06-07T23:52:34.354Z,11.30
2019-06-07T23:55:01.368Z,9.30
2019-06-07T23:57:28.387Z,9.30
2019-06-07T23:59:55.383Z,9.30
